Time;durP1;ratioP1;P1;durP2;ratioP2;P2;SDS_P1;SDS_P2;PMS_P1;PMS_P2;Temp;Humidity;BMP_temperature;BMP_pressure;BME280_temperature;BME280_humidity;BME280_pressure;Samples;Min_cycle;Max_cycle;Signal;HPM_P1;HPM_P2
2023/01/13 00:03:44;;;;;;;0.80;0.80;;;11.20;37.90;;;;;;10433924;28;20232;-74
2023/01/13 00:08:48;;;;;;;1.03;0.87;;;11.20;37.80;;;;;;10439681;28;20747;-74
2023/01/13 00:13:52;;;;;;;1.63;0.93;;;11.30;38.00;;;;;;10431727;28;20743;-75
2023/01/13 00:18:56;;;;;;;1.83;1.00;;;11.30;38.00;;;;;;10445526;28;20221;-75
2023/01/13 00:23:59;;;;;;;1.20;1.00;;;11.30;37.80;;;;;;10437661;28;20310;-74
2023/01/13 00:29:02;;;;;;;2.17;1.00;;;11.40;38.00;;;;;;10414672;28;20229;-75
2023/01/13 00:34:07;;;;;;;1.67;0.80;;;11.40;37.90;;;;;;10413550;28;20282;-74
2023/01/13 00:39:10;;;;;;;1.30;0.90;;;11.40;37.70;;;;;;10430602;28;20283;-74
2023/01/13 00:44:13;;;;;;;0.90;0.83;;;11.50;37.80;;;;;;10435102;28;20240;-75
2023/01/13 00:49:18;;;;;;;1.43;0.90;;;11.50;37.90;;;;;;10442239;28;20235;-75
2023/01/13 00:54:21;;;;;;;0.70;0.70;;;11.50;37.50;;;;;;10441468;28;20250;-75
2023/01/13 00:59:24;;;;;;;1.63;0.90;;;11.60;37.60;;;;;;10437406;28;20299;-75
2023/01/13 01:04:28;;;;;;;1.60;0.80;;;11.60;37.60;;;;;;10432742;28;20229;-74
2023/01/13 01:09:33;;;;;;;1.47;1.00;;;11.60;37.40;;;;;;10435970;28;20360;-75
2023/01/13 01:14:36;;;;;;;2.87;1.00;;;11.70;37.60;;;;;;10431673;28;20320;-74
2023/01/13 01:19:41;;;;;;;1.83;1.00;;;11.70;37.50;;;;;;10418268;28;20224;-74
2023/01/13 01:24:44;;;;;;;1.37;0.90;;;11.70;37.40;;;;;;10437616;28;20229;-74
2023/01/13 01:29:47;;;;;;;0.90;0.80;;;11.70;37.50;;;;;;10438393;28;20236;-75
2023/01/13 01:34:52;;;;;;;1.37;1.00;;;11.80;37.30;;;;;;10437331;28;20240;-74
2023/01/13 01:39:55;;;;;;;1.43;1.00;;;11.80;37.20;;;;;;10439964;28;20290;-74
2023/01/13 01:45:10;;;;;;;0.97;0.90;;;11.80;37.30;;;;;;10433297;28;20245;-75
2023/01/13 01:50:16;;;;;;;1.50;0.90;;;11.80;37.10;;;;;;10428333;28;20822;-75
2023/01/13 01:55:22;;;;;;;1.07;0.80;;;11.90;37.20;;;;;;10423970;28;20230;-75
2023/01/13 02:00:26;;;;;;;0.97;0.77;;;11.90;37.10;;;;;;10423392;28;20226;-74
2023/01/13 02:05:33;;;;;;;1.13;0.80;;;11.90;37.00;;;;;;10429209;28;20229;-74
2023/01/13 02:10:37;;;;;;;1.07;0.80;;;11.90;37.10;;;;;;10434290;28;20232;-74
2023/01/13 02:15:48;;;;;;;1.57;0.87;;;11.90;37.00;;;;;;10431946;28;20233;-74
2023/01/13 02:21:22;;;;;;;0.90;0.80;;;11.90;36.80;;;;;;10441519;28;20233;-75
2023/01/13 02:27:10;;;;;;;0.83;0.70;;;12.00;36.40;;;;;;10397863;28;20226;-74
2023/01/13 02:32:21;;;;;;;1.53;0.80;;;12.00;36.60;;;;;;10439370;28;20240;-74
2023/01/13 02:37:29;;;;;;;1.57;0.67;;;12.00;37.10;;;;;;10442233;28;20692;-75
2023/01/13 02:47:59;;;;;;;0.93;0.80;;;12.00;36.60;;;;;;10439508;28;20233;-74
2023/01/13 02:53:07;;;;;;;1.57;0.83;;;12.10;36.40;;;;;;10437220;28;20240;-75
2023/01/13 02:58:15;;;;;;;1.87;0.80;;;12.10;36.50;;;;;;10436740;28;20229;-74
2023/01/13 03:03:19;;;;;;;1.33;0.70;;;12.10;36.30;;;;;;10435232;28;20287;-75
2023/01/13 03:08:38;;;;;;;2.10;0.70;;;12.10;36.60;;;;;;10435518;28;20244;-75
2023/01/13 03:14:00;;;;;;;0.70;0.70;;;12.20;36.10;;;;;;10436693;28;20233;-74
2023/01/13 03:19:15;;;;;;;0.80;0.80;;;12.20;35.80;;;;;;10424912;28;20232;-75
2023/01/13 03:24:26;;;;;;;0.70;0.70;;;12.20;35.80;;;;;;10423508;28;20237;-74
2023/01/13 03:29:35;;;;;;;1.13;0.60;;;12.30;36.00;;;;;;10438798;28;20229;-74
2023/01/13 03:34:45;;;;;;;1.47;0.70;;;12.30;36.10;;;;;;10434790;28;20260;-75
2023/01/13 03:39:52;;;;;;;0.70;0.70;;;12.30;35.90;;;;;;10425369;28;20226;-75
2023/01/13 03:45:00;;;;;;;1.60;0.80;;;12.30;36.20;;;;;;10436677;28;20856;-74
2023/01/13 03:50:08;;;;;;;0.97;0.87;;;12.30;36.00;;;;;;10439043;28;20229;-74
2023/01/13 03:55:14;;;;;;;1.20;0.80;;;12.30;35.90;;;;;;10434236;28;20225;-75
2023/01/13 04:00:19;;;;;;;1.10;0.80;;;12.30;36.10;;;;;;10440292;28;20221;-75
2023/01/13 04:05:24;;;;;;;1.00;0.90;;;12.30;35.90;;;;;;10432928;28;20665;-74
2023/01/13 04:10:31;;;;;;;0.70;0.70;;;12.40;36.00;;;;;;10437960;28;20236;-75
2023/01/13 04:15:37;;;;;;;0.70;0.70;;;12.40;36.00;;;;;;10435300;28;20233;-74
2023/01/13 04:20:43;;;;;;;2.23;0.70;;;12.40;35.70;;;;;;10438426;28;20248;-74
2023/01/13 04:25:47;;;;;;;0.80;0.80;;;12.40;35.70;;;;;;10435275;28;20240;-75
2023/01/13 04:30:50;;;;;;;0.60;0.60;;;12.50;35.80;;;;;;10421855;28;20229;-75
2023/01/13 04:35:55;;;;;;;1.33;0.83;;;12.50;35.60;;;;;;10435035;28;20597;-74
2023/01/13 04:40:58;;;;;;;1.50;0.87;;;12.50;35.10;;;;;;10438553;28;20693;-74
2023/01/13 04:46:01;;;;;;;0.87;0.70;;;12.50;35.20;;;;;;10429890;28;20232;-74
2023/01/13 04:51:06;;;;;;;2.13;0.80;;;12.50;35.20;;;;;;10436309;28;20224;-75
2023/01/13 04:56:09;;;;;;;0.80;0.80;;;12.50;35.00;;;;;;10438826;28;20228;-75
2023/01/13 05:01:12;;;;;;;0.80;0.80;;;12.60;35.30;;;;;;10436932;28;20225;-75
2023/01/13 05:06:17;;;;;;;0.87;0.80;;;12.60;35.10;;;;;;10425295;28;20237;-75
2023/01/13 05:27:21;;;;;;;1.20;0.80;;;12.70;34.80;;;;;;10434394;28;20707;-75
2023/01/13 05:32:26;;;;;;;1.33;1.00;;;12.70;35.00;;;;;;10430552;28;20865;-74
2023/01/13 05:37:31;;;;;;;1.23;0.80;;;12.70;34.80;;;;;;10433116;28;20707;-74
2023/01/13 05:47:56;;;;;;;1.23;1.10;;;12.70;35.10;;;;;;10441312;28;20232;-74
2023/01/13 05:53:00;;;;;;;1.57;1.03;;;12.80;35.20;;;;;;10448376;28;20228;-74
2023/01/13 05:58:04;;;;;;;1.23;1.13;;;12.80;35.00;;;;;;10436329;28;20229;-75
2023/01/13 06:03:07;;;;;;;1.30;1.20;;;12.80;35.20;;;;;;10428710;28;20264;-75
2023/01/13 06:08:12;;;;;;;2.07;1.87;;;12.80;35.20;;;;;;10433198;28;20222;-75
2023/01/13 06:13:15;;;;;;;1.83;1.00;;;12.80;35.00;;;;;;10434742;28;20244;-75
2023/01/13 06:18:18;;;;;;;1.53;0.80;;;12.80;35.20;;;;;;10425128;28;20241;-76
2023/01/13 06:23:24;;;;;;;1.10;0.90;;;12.80;35.10;;;;;;10426333;28;20241;-75
2023/01/13 06:28:27;;;;;;;1.07;0.90;;;12.80;35.00;;;;;;10431872;28;20225;-75
2023/01/13 06:33:33;;;;;;;1.27;1.00;;;12.90;35.10;;;;;;10431376;28;20296;-76
2023/01/13 06:38:42;;;;;;;0.83;0.70;;;12.90;34.90;;;;;;10434151;28;20248;-79
2023/01/13 06:43:47;;;;;;;1.07;0.97;;;12.90;35.40;;;;;;10439054;28;20236;-79
2023/01/13 06:48:50;;;;;;;1.47;0.97;;;12.90;35.00;;;;;;10441208;28;20705;-79
2023/01/13 06:53:54;;;;;;;1.40;1.30;;;12.90;35.00;;;;;;10437888;28;20237;-79
2023/01/13 06:58:58;;;;;;;1.30;1.20;;;13.00;34.90;;;;;;10437164;28;20230;-79
2023/01/13 07:04:01;;;;;;;1.70;1.60;;;13.00;35.10;;;;;;10431887;28;20326;-81
2023/01/13 07:09:06;;;;;;;1.90;1.80;;;13.00;34.90;;;;;;10437736;28;20697;-79
2023/01/13 07:19:31;;;;;;;1.37;1.20;;;13.00;35.00;;;;;;10441837;28;20232;-77
2023/01/13 07:24:35;;;;;;;1.10;1.10;;;13.10;35.30;;;;;;10445675;28;21238;-81
2023/01/13 07:29:38;;;;;;;0.73;0.73;;;13.00;35.10;;;;;;10445553;28;20236;-81
2023/01/13 07:34:42;;;;;;;0.80;0.80;;;13.00;35.10;;;;;;10445715;28;20233;-81
2023/01/13 07:39:46;;;;;;;1.27;1.17;;;13.00;35.20;;;;;;10446295;28;20231;-81
2023/01/13 07:44:50;;;;;;;1.43;0.90;;;13.00;35.10;;;;;;10441297;28;20229;-81
2023/01/13 07:49:54;;;;;;;0.90;0.90;;;13.10;35.40;;;;;;10440607;28;20644;-81
2023/01/13 07:54:58;;;;;;;0.83;0.83;;;13.10;35.50;;;;;;10440288;28;20224;-83
2023/01/13 08:00:02;;;;;;;1.10;1.00;;;13.10;35.40;;;;;;10430638;28;20230;-79
2023/01/13 08:05:06;;;;;;;1.47;1.00;;;13.10;35.60;;;;;;10430423;28;20807;-80
2023/01/13 08:10:11;;;;;;;0.80;0.80;;;13.10;35.50;;;;;;10437909;28;20240;-82
2023/01/13 08:15:15;;;;;;;1.60;1.50;;;13.10;35.50;;;;;;10436365;28;20733;-81
2023/01/13 08:20:18;;;;;;;0.93;0.83;;;13.10;35.60;;;;;;10446105;28;20240;-82
2023/01/13 08:25:36;;;;;;;2.47;1.17;;;13.20;35.50;;;;;;10435372;28;21557;-83
2023/01/13 08:30:39;;;;;;;0.80;0.80;;;13.20;35.40;;;;;;10432885;28;20830;-79
2023/01/13 08:35:43;;;;;;;0.70;0.70;;;13.20;35.50;;;;;;10449538;28;20229;-81
2023/01/13 08:40:49;;;;;;;0.97;0.70;;;13.20;35.60;;;;;;10436219;28;20237;-80
2023/01/13 08:45:58;;;;;;;1.03;0.90;;;13.20;35.30;;;;;;10440049;28;20229;-82
2023/01/13 08:51:06;;;;;;;1.07;0.83;;;13.30;35.50;;;;;;10435679;28;20276;-82
2023/01/13 08:56:12;;;;;;;1.93;0.90;;;13.30;35.30;;;;;;10438219;28;20242;-82
2023/01/13 09:01:23;;;;;;;0.77;0.77;;;13.30;35.40;;;;;;10437491;28;20599;-80
2023/01/13 09:06:31;;;;;;;0.53;0.50;;;13.30;35.40;;;;;;10463069;28;20233;-80
2023/01/13 09:17:09;;;;;;;0.60;0.60;;;13.40;35.40;;;;;;10451662;28;20304;-80
2023/01/13 09:22:16;;;;;;;1.03;1.00;;;13.40;35.40;;;;;;10454014;28;20239;-81
2023/01/13 09:27:24;;;;;;;0.70;0.70;;;13.40;35.40;;;;;;10454494;28;20230;-83
2023/01/13 09:32:32;;;;;;;1.30;0.70;;;13.40;35.20;;;;;;10448665;28;20224;-81
2023/01/13 09:37:37;;;;;;;0.90;0.90;;;13.50;35.20;;;;;;10450713;28;20247;-81
2023/01/13 09:48:17;;;;;;;0.70;0.70;;;13.50;35.20;;;;;;10456364;28;20590;-82
2023/01/13 09:53:22;;;;;;;0.80;0.80;;;13.60;35.40;;;;;;10466341;28;20725;-81
2023/01/13 09:58:27;;;;;;;0.73;0.73;;;13.60;35.40;;;;;;10455363;28;20224;-81
2023/01/13 10:03:32;;;;;;;0.87;0.80;;;13.60;35.40;;;;;;10443201;28;20854;-81
2023/01/13 10:08:38;;;;;;;0.60;0.60;;;13.70;35.50;;;;;;10440236;28;20807;-80
2023/01/13 10:13:43;;;;;;;0.77;0.70;;;13.70;35.40;;;;;;10444166;28;20232;-81
2023/01/13 10:19:00;;;;;;;0.80;0.77;;;13.70;35.50;;;;;;10443883;28;20224;-82
2023/01/13 10:24:13;;;;;;;0.70;0.70;;;13.80;35.50;;;;;;10436713;28;20229;-80
2023/01/13 10:29:24;;;;;;;0.70;0.70;;;13.80;35.40;;;;;;10455046;28;20588;-81
2023/01/13 10:34:28;;;;;;;0.80;0.80;;;13.90;35.50;;;;;;10449498;28;20226;-81
2023/01/13 10:39:40;;;;;;;0.90;0.90;;;13.90;35.50;;;;;;10436601;28;20221;-81
2023/01/13 10:44:50;;;;;;;0.60;0.60;;;13.90;35.20;;;;;;10444409;28;20236;-80
2023/01/13 10:50:21;;;;;;;0.83;0.70;;;13.90;35.20;;;;;;10448885;28;20235;-80
2023/01/13 10:55:27;;;;;;;0.70;0.70;;;13.90;35.30;;;;;;10454980;28;20235;-80
2023/01/13 11:00:34;;;;;;;0.73;0.73;;;13.90;35.40;;;;;;10456067;28;20635;-80
2023/01/13 11:05:37;;;;;;;0.70;0.70;;;14.00;35.50;;;;;;10454114;28;20305;-80
2023/01/13 11:10:46;;;;;;;0.83;0.83;;;14.00;35.70;;;;;;10453221;28;20234;-80
2023/01/13 11:15:56;;;;;;;1.00;0.90;;;14.00;35.70;;;;;;10445310;28;20229;-80
2023/01/13 11:21:06;;;;;;;0.90;0.90;;;14.10;35.70;;;;;;10444053;28;20235;-80
2023/01/13 11:26:14;;;;;;;0.80;0.80;;;14.20;35.60;;;;;;10448543;28;20230;-79
2023/01/13 11:31:24;;;;;;;1.33;0.90;;;14.20;35.20;;;;;;10439094;28;20248;-80
2023/01/13 11:36:34;;;;;;;0.80;0.80;;;14.20;35.20;;;;;;10437104;28;20221;-82
2023/01/13 11:41:44;;;;;;;1.63;0.87;;;14.30;35.00;;;;;;10445279;28;20244;-83
2023/01/13 11:46:53;;;;;;;0.80;0.80;;;14.30;35.20;;;;;;10436923;28;20240;-82
2023/01/13 11:52:03;;;;;;;1.60;0.63;;;14.30;35.30;;;;;;10436684;28;20564;-81
2023/01/13 11:57:31;;;;;;;0.70;0.70;;;14.30;35.00;;;;;;10445167;28;20280;-82
2023/01/13 12:02:52;;;;;;;0.47;0.47;;;14.30;35.10;;;;;;10432496;28;20255;-82
2023/01/13 12:08:09;;;;;;;1.10;0.70;;;14.20;35.30;;;;;;10443149;28;20213;-79
2023/01/13 12:13:24;;;;;;;1.03;0.70;;;14.20;35.20;;;;;;10437037;28;20231;-79
2023/01/13 12:18:41;;;;;;;0.87;0.80;;;14.20;35.60;;;;;;10447390;28;20685;-82
2023/01/13 12:23:51;;;;;;;0.80;0.80;;;14.10;37.60;;;;;;10449241;28;20229;-82
2023/01/13 12:29:00;;;;;;;0.60;0.60;;;13.80;37.90;;;;;;10452792;28;20328;-82
2023/01/13 12:34:27;;;;;;;1.17;0.60;;;13.50;38.10;;;;;;10437743;28;20261;-84
2023/01/13 12:39:38;;;;;;;0.60;0.60;;;13.10;39.70;;;;;;10434068;28;20231;-82
2023/01/13 12:45:07;;;;;;;0.57;0.57;;;12.90;38.60;;;;;;10456020;28;20237;-81
2023/01/13 12:50:42;;;;;;;1.17;0.73;;;12.80;39.90;;;;;;10456199;28;20227;-82
2023/01/13 12:55:51;;;;;;;0.90;0.60;;;12.60;39.70;;;;;;10354503;28;20239;-82
2023/01/13 13:01:05;;;;;;;0.60;0.60;;;12.50;39.00;;;;;;10452466;28;20225;-84
2023/01/13 13:06:19;;;;;;;0.80;0.70;;;12.50;39.00;;;;;;10447435;28;20762;-82
2023/01/13 13:16:55;;;;;;;0.77;0.70;;;12.50;38.60;;;;;;10454708;28;20230;-82
2023/01/13 13:22:34;;;;;;;0.70;0.70;;;12.40;38.30;;;;;;10441747;28;20231;-82
2023/01/13 13:27:45;;;;;;;1.87;0.90;;;12.40;39.50;;;;;;10445896;28;20280;-81
2023/01/13 13:33:02;;;;;;;0.80;0.80;;;12.40;39.00;;;;;;10444845;28;20296;-83
2023/01/13 13:49:06;;;;;;;2.47;2.20;;;12.10;38.20;;;;;;10436359;28;20232;-79
2023/01/13 13:54:11;;;;;;;2.43;1.57;;;11.80;38.10;;;;;;10450324;28;20236;-80
2023/01/13 13:59:19;;;;;;;0.80;0.80;;;11.60;38.40;;;;;;10445894;28;20272;-77
2023/01/13 14:04:25;;;;;;;1.07;0.97;;;11.50;38.80;;;;;;10451554;28;20243;-77
2023/01/13 14:09:39;;;;;;;1.20;0.90;;;11.40;38.70;;;;;;10457325;28;20252;-80
2023/01/13 14:14:45;;;;;;;1.60;1.00;;;11.30;38.70;;;;;;10460853;28;20229;-80
2023/01/13 14:19:53;;;;;;;1.50;1.40;;;11.20;39.00;;;;;;10443006;28;20252;-79
2023/01/13 14:24:57;;;;;;;1.93;0.97;;;11.00;39.10;;;;;;10439810;28;20225;-82
2023/01/13 14:30:02;;;;;;;0.83;0.83;;;10.90;38.60;;;;;;10438000;28;20309;-77
2023/01/13 14:35:07;;;;;;;2.70;1.37;;;10.90;38.70;;;;;;10446090;28;20232;-77
2023/01/13 14:40:43;;;;;;;1.63;1.13;;;10.80;38.60;;;;;;10443242;28;20221;-79
2023/01/13 14:46:12;;;;;;;1.00;0.80;;;10.70;39.20;;;;;;10424558;28;20297;-77
2023/01/13 14:51:23;;;;;;;0.97;0.70;;;10.60;38.80;;;;;;10429401;28;20641;-78
2023/01/13 14:56:50;;;;;;;2.30;1.60;;;10.50;39.20;;;;;;10444010;28;20242;-79
2023/01/13 15:01:54;;;;;;;1.87;1.00;;;10.40;39.70;;;;;;10437977;28;20229;-79
2023/01/13 15:06:59;;;;;;;2.80;2.20;;;10.50;39.30;;;;;;10446777;28;20629;-79
2023/01/13 15:12:16;;;;;;;2.00;1.80;;;10.50;39.00;;;;;;10448588;28;20229;-78
2023/01/13 15:17:20;;;;;;;1.30;1.20;;;10.50;39.60;;;;;;10443782;28;20233;-79
2023/01/13 15:22:24;;;;;;;1.93;1.20;;;10.50;39.00;;;;;;10435335;28;20264;-77
2023/01/13 15:27:27;;;;;;;1.90;1.80;;;10.40;38.60;;;;;;10429875;28;20229;-78
2023/01/13 15:32:31;;;;;;;2.43;2.00;;;10.40;38.80;;;;;;10427406;28;20255;-78
2023/01/13 15:37:35;;;;;;;2.87;1.80;;;10.30;39.00;;;;;;10426926;28;20236;-78
2023/01/13 15:48:00;;;;;;;2.03;1.60;;;10.00;38.90;;;;;;10448140;28;20356;-78
2023/01/13 15:53:04;;;;;;;2.40;1.37;;;9.80;40.00;;;;;;10438583;28;20236;-79
2023/01/13 15:58:09;;;;;;;3.23;2.00;;;9.80;40.00;;;;;;10447601;28;20228;-81
2023/01/13 16:03:14;;;;;;;2.27;1.43;;;9.70;40.10;;;;;;10447432;28;20243;-80
2023/01/13 16:08:20;;;;;;;1.63;1.53;;;9.60;40.50;;;;;;10465480;28;20239;-80
2023/01/13 16:13:23;;;;;;;3.63;1.40;;;9.60;40.10;;;;;;10465210;28;20235;-78
2023/01/13 16:18:30;;;;;;;2.87;1.47;;;9.60;40.10;;;;;;10435685;28;20236;-80
2023/01/13 16:23:34;;;;;;;2.63;1.80;;;9.50;40.50;;;;;;10447849;28;20466;-81
2023/01/13 16:28:37;;;;;;;2.13;1.50;;;9.50;39.90;;;;;;10456506;28;20233;-81
2023/01/13 16:33:43;;;;;;;1.40;1.30;;;9.40;40.00;;;;;;10460845;28;20240;-82
2023/01/13 16:38:47;;;;;;;2.47;2.27;;;9.20;40.20;;;;;;10461109;28;20229;-82
2023/01/13 16:43:51;;;;;;;3.90;3.03;;;9.30;40.30;;;;;;10461000;28;20724;-81
2023/01/13 16:49:01;;;;;;;3.97;2.60;;;9.20;40.20;;;;;;10461165;28;20233;-82
2023/01/13 16:54:04;;;;;;;3.47;2.33;;;9.20;40.20;;;;;;10459008;28;20228;-81
2023/01/13 16:59:10;;;;;;;3.80;2.30;;;9.20;40.20;;;;;;10437218;28;20222;-77
2023/01/13 17:04:17;;;;;;;4.67;2.70;;;9.20;40.20;;;;;;10449132;28;20641;-79
2023/01/13 17:09:23;;;;;;;4.90;3.70;;;9.10;40.10;;;;;;10455576;28;20716;-78
2023/01/13 17:14:26;;;;;;;4.83;3.33;;;9.10;40.10;;;;;;10456943;28;20286;-79
2023/01/13 17:19:31;;;;;;;6.23;3.60;;;9.10;40.10;;;;;;10457769;28;20235;-79
2023/01/13 17:24:36;;;;;;;5.87;4.27;;;9.20;40.20;;;;;;10457464;28;20228;-79
2023/01/13 17:29:39;;;;;;;4.33;2.40;;;9.20;40.20;;;;;;10432795;28;20233;-79
2023/01/13 17:34:45;;;;;;;3.27;2.43;;;9.10;40.10;;;;;;10434028;28;20226;-80
2023/01/13 17:39:49;;;;;;;5.33;4.27;;;9.20;40.20;;;;;;10454528;28;20605;-80
2023/01/13 17:44:53;;;;;;;7.37;6.13;;;9.20;40.20;;;;;;10443541;28;20256;-80
2023/01/13 17:49:57;;;;;;;7.60;5.50;;;9.10;40.10;;;;;;10465069;28;20236;-80
2023/01/13 17:55:01;;;;;;;5.07;3.33;;;9.10;40.10;;;;;;10428516;28;20241;-80
2023/01/13 18:00:05;;;;;;;5.10;3.93;;;9.10;40.10;;;;;;10442539;28;20288;-80
2023/01/13 18:05:11;;;;;;;5.20;4.33;;;9.00;40.10;;;;;;10464680;28;20248;-80
2023/01/13 18:10:17;;;;;;;4.33;3.37;;;9.10;40.20;;;;;;10464558;28;20272;-80
2023/01/13 18:15:23;;;;;;;4.57;3.37;;;9.10;40.10;;;;;;10425163;28;20250;-80
2023/01/13 18:31:09;;;;;;;8.30;6.13;;;9.30;40.30;;;;;;10463774;28;20252;-80
2023/01/13 18:36:14;;;;;;;5.50;4.80;;;9.30;40.30;;;;;;10463279;28;20233;-80
2023/01/13 18:46:39;;;;;;;4.97;3.77;;;9.40;40.40;;;;;;10463829;28;20609;-80
2023/01/13 18:51:44;;;;;;;5.50;4.83;;;9.40;40.40;;;;;;10462757;28;20606;-79
2023/01/13 18:56:53;;;;;;;4.70;3.40;;;9.30;40.40;;;;;;10463199;28;20236;-80
2023/01/13 19:01:57;;;;;;;10.67;6.27;;;9.40;40.40;;;;;;10462450;28;20316;-80
2023/01/13 19:07:03;;;;;;;12.57;8.00;;;9.40;40.40;;;;;;10461241;28;20286;-80
2023/01/13 19:12:09;;;;;;;33.03;25.70;;;9.40;40.70;;;;;;10444983;28;20236;-80
2023/01/13 19:17:13;;;;;;;15.23;11.60;;;9.40;40.40;;;;;;10462369;28;20236;-80
2023/01/13 19:22:21;;;;;;;12.27;9.27;;;9.40;40.40;;;;;;10450772;28;20261;-80
2023/01/13 19:27:26;;;;;;;10.47;7.40;;;9.40;40.40;;;;;;10462630;28;20597;-79
2023/01/13 19:32:30;;;;;;;7.90;6.60;;;9.30;40.30;;;;;;10443026;28;20243;-79
2023/01/13 19:37:35;;;;;;;7.73;6.63;;;9.20;40.20;;;;;;10458524;28;20229;-79
2023/01/13 19:48:07;;;;;;;7.80;6.83;;;9.10;41.10;;;;;;10422168;28;20233;-79
2023/01/13 19:53:16;;;;;;;6.50;4.30;;;9.00;40.70;;;;;;10449330;28;20287;-79
2023/01/13 19:58:21;;;;;;;10.13;7.47;;;9.00;41.30;;;;;;10457188;28;20241;-79
2023/01/13 20:03:29;;;;;;;16.13;14.53;;;9.00;40.80;;;;;;10447950;28;20233;-80
2023/01/13 20:08:34;;;;;;;31.37;23.70;;;9.10;41.10;;;;;;10447066;28;20225;-79
2023/01/13 20:13:37;;;;;;;22.83;20.33;;;9.10;41.00;;;;;;10429018;28;20234;-80
2023/01/13 20:18:41;;;;;;;10.93;9.70;;;9.10;40.90;;;;;;10436326;28;20233;-80
2023/01/13 20:23:49;;;;;;;7.47;6.60;;;9.00;40.90;;;;;;10455244;28;20236;-79
2023/01/13 20:28:54;;;;;;;6.90;6.20;;;9.00;41.60;;;;;;10426531;28;20228;-78
2023/01/13 20:33:57;;;;;;;5.07;4.53;;;9.10;41.40;;;;;;10449072;28;20232;-80
2023/01/13 20:39:03;;;;;;;7.57;5.50;;;9.10;41.00;;;;;;10416936;28;20225;-80
2023/01/13 20:44:10;;;;;;;2.60;2.30;;;9.20;41.40;;;;;;10441762;28;20266;-80
2023/01/13 20:49:15;;;;;;;2.53;1.60;;;9.20;41.20;;;;;;10449436;28;20805;-80
2023/01/13 20:54:20;;;;;;;2.37;2.13;;;9.20;41.50;;;;;;10426676;28;20712;-80
2023/01/13 20:59:25;;;;;;;1.90;1.80;;;9.30;41.50;;;;;;10454441;28;20233;-80
2023/01/13 21:04:29;;;;;;;2.13;1.80;;;9.40;41.60;;;;;;10421558;28;20233;-80
2023/01/13 21:09:34;;;;;;;2.60;2.40;;;9.40;41.10;;;;;;10468289;28;20232;-80
2023/01/13 21:19:57;;;;;;;3.23;1.90;;;9.50;41.00;;;;;;10423556;28;20395;-80
2023/01/13 21:25:02;;;;;;;2.50;1.80;;;9.50;40.90;;;;;;10451703;28;20236;-80
2023/01/13 21:30:06;;;;;;;2.07;1.80;;;9.40;41.00;;;;;;10448713;28;20229;-80
2023/01/13 21:35:10;;;;;;;2.27;1.57;;;9.30;41.00;;;;;;10444949;28;20228;-80
2023/01/13 21:40:15;;;;;;;2.27;1.40;;;9.40;41.10;;;;;;10461533;28;20239;-80
2023/01/13 21:50:37;;;;;;;1.33;1.10;;;9.30;40.90;;;;;;10407249;28;20228;-80
2023/01/13 21:55:41;;;;;;;2.90;1.40;;;9.20;40.80;;;;;;10443296;28;20316;-80
2023/01/13 22:00:45;;;;;;;3.67;1.37;;;9.20;41.00;;;;;;10435495;28;20310;-80
2023/01/13 22:05:55;;;;;;;2.03;1.00;;;9.10;40.60;;;;;;10442870;28;20239;-80
2023/01/13 22:11:02;;;;;;;1.87;1.07;;;9.10;40.80;;;;;;10447289;28;20233;-80
2023/01/13 22:16:07;;;;;;;0.73;0.67;;;9.00;40.90;;;;;;10461291;28;20240;-80
2023/01/13 22:21:11;;;;;;;2.27;1.03;;;9.00;40.80;;;;;;10458785;28;20236;-80
2023/01/13 22:26:16;;;;;;;2.63;1.20;;;9.00;40.70;;;;;;10453933;28;20600;-80
2023/01/13 22:31:22;;;;;;;1.90;1.10;;;9.00;40.90;;;;;;10448535;28;20240;-80
2023/01/13 22:36:25;;;;;;;1.40;1.10;;;9.00;40.70;;;;;;10460082;28;20403;-80
2023/01/13 22:41:30;;;;;;;1.93;1.20;;;8.90;40.70;;;;;;10435902;28;20724;-80
2023/01/13 22:46:33;;;;;;;2.93;0.90;;;8.90;40.90;;;;;;10458625;28;20237;-80
2023/01/13 22:51:36;;;;;;;2.47;1.10;;;8.90;40.80;;;;;;10462065;28;20232;-80
2023/01/13 22:56:41;;;;;;;2.03;1.00;;;8.90;40.90;;;;;;10460765;28;20704;-80
2023/01/13 23:01:44;;;;;;;2.53;1.20;;;8.90;41.00;;;;;;10461328;28;20304;-80
2023/01/13 23:06:48;;;;;;;2.50;1.03;;;8.90;40.80;;;;;;10451164;28;20229;-80
2023/01/13 23:11:52;;;;;;;1.50;1.07;;;8.90;40.90;;;;;;10433777;28;20236;-79
2023/01/13 23:16:55;;;;;;;2.37;1.00;;;9.00;40.90;;;;;;10418455;28;20234;-80
2023/01/13 23:21:58;;;;;;;1.80;1.00;;;9.00;40.70;;;;;;10426540;28;20233;-80
2023/01/13 23:27:03;;;;;;;2.77;0.97;;;9.00;40.80;;;;;;10437635;28;20220;-80
2023/01/13 23:32:06;;;;;;;1.13;0.80;;;9.00;40.80;;;;;;10457947;28;20221;-79
2023/01/13 23:37:09;;;;;;;2.30;1.23;;;9.00;40.80;;;;;;10458984;28;20228;-80
2023/01/13 23:42:14;;;;;;;3.00;1.20;;;9.00;40.70;;;;;;10423946;28;20305;-80
2023/01/13 23:47:17;;;;;;;2.70;0.97;;;9.00;40.90;;;;;;10458344;28;20236;-80
2023/01/13 23:52:20;;;;;;;1.23;0.90;;;9.00;40.70;;;;;;10458231;28;20241;-80
2023/01/13 23:57:24;;;;;;;3.07;1.00;;;9.00;40.70;;;;;;10433357;28;20241;-80
